sensor_id;sensor_type;location;lat;lon;timestamp;temperature;humidity
59282;DHT22;45054;52.062;10.010;2023-05-13T00:00:05;12.20;99.90
59282;DHT22;45054;52.062;10.010;2023-05-13T00:02:31;12.10;99.90
59282;DHT22;45054;52.062;10.010;2023-05-13T00:04:56;12.10;99.90
59282;DHT22;45054;52.062;10.010;2023-05-13T00:07:21;12.00;99.90
59282;DHT22;45054;52.062;10.010;2023-05-13T00:09:48;12.00;99.90
59282;DHT22;45054;52.062;10.010;2023-05-13T00:12:14;11.90;99.90
59282;DHT22;45054;52.062;10.010;2023-05-13T00:14:39;12.00;99.90
59282;DHT22;45054;52.062;10.010;2023-05-13T00:17:05;12.00;99.90
59282;DHT22;45054;52.062;10.010;2023-05-13T00:19:30;12.00;99.90
59282;DHT22;45054;52.062;10.010;2023-05-13T00:21:55;11.90;99.90
59282;DHT22;45054;52.062;10.010;2023-05-13T00:24:21;11.80;99.90
59282;DHT22;45054;52.062;10.010;2023-05-13T00:26:48;11.70;99.90
59282;DHT22;45054;52.062;10.010;2023-05-13T00:29:13;11.70;99.90
59282;DHT22;45054;52.062;10.010;2023-05-13T00:31:39;11.70;99.90
59282;DHT22;45054;52.062;10.010;2023-05-13T00:34:04;11.70;99.90
59282;DHT22;45054;52.062;10.010;2023-05-13T00:36:30;11.70;99.90
59282;DHT22;45054;52.062;10.010;2023-05-13T00:38:55;11.60;99.90
59282;DHT22;45054;52.062;10.010;2023-05-13T00:41:21;11.50;99.90
59282;DHT22;45054;52.062;10.010;2023-05-13T00:43:47;11.40;99.90
59282;DHT22;45054;52.062;10.010;2023-05-13T00:46:13;11.40;99.90
59282;DHT22;45054;52.062;10.010;2023-05-13T00:48:39;11.40;99.90
59282;DHT22;45054;52.062;10.010;2023-05-13T00:51:04;11.40;99.90
59282;DHT22;45054;52.062;10.010;2023-05-13T00:53:30;11.40;99.90
59282;DHT22;45054;52.062;10.010;2023-05-13T00:55:56;11.40;99.90
59282;DHT22;45054;52.062;10.010;2023-05-13T00:58:21;11.20;99.90
59282;DHT22;45054;52.062;10.010;2023-05-13T01:00:50;11.20;99.90
59282;DHT22;45054;52.062;10.010;2023-05-13T01:03:31;11.20;99.90
59282;DHT22;45054;52.062;10.010;2023-05-13T01:05:58;11.20;99.90
59282;DHT22;45054;52.062;10.010;2023-05-13T01:08:28;11.20;99.90
59282;DHT22;45054;52.062;10.010;2023-05-13T01:10:58;11.10;99.90
59282;DHT22;45054;52.062;10.010;2023-05-13T01:13:25;11.20;99.90
59282;DHT22;45054;52.062;10.010;2023-05-13T01:15:55;11.10;99.90
59282;DHT22;45054;52.062;10.010;2023-05-13T01:18:22;11.20;99.90
59282;DHT22;45054;52.062;10.010;2023-05-13T01:20:49;11.10;99.90
59282;DHT22;45054;52.062;10.010;2023-05-13T01:23:16;11.20;99.90
59282;DHT22;45054;52.062;10.010;2023-05-13T01:25:41;11.20;99.90
59282;DHT22;45054;52.062;10.010;2023-05-13T01:28:07;11.10;99.90
59282;DHT22;45054;52.062;10.010;2023-05-13T01:30:33;11.00;99.90
59282;DHT22;45054;52.062;10.010;2023-05-13T01:32:58;10.90;99.90
59282;DHT22;45054;52.062;10.010;2023-05-13T01:35:24;10.90;99.90
59282;DHT22;45054;52.062;10.010;2023-05-13T01:37:50;10.90;99.90
59282;DHT22;45054;52.062;10.010;2023-05-13T01:40:17;10.90;99.90
59282;DHT22;45054;52.062;10.010;2023-05-13T01:42:43;10.80;99.90
59282;DHT22;45054;52.062;10.010;2023-05-13T01:45:09;10.70;99.90
59282;DHT22;45054;52.062;10.010;2023-05-13T01:47:34;10.70;99.90
59282;DHT22;45054;52.062;10.010;2023-05-13T01:50:00;10.70;99.90
59282;DHT22;45054;52.062;10.010;2023-05-13T01:52:25;10.60;99.90
59282;DHT22;45054;52.062;10.010;2023-05-13T01:54:51;10.60;99.90
59282;DHT22;45054;52.062;10.010;2023-05-13T01:57:17;10.60;99.90
59282;DHT22;45054;52.062;10.010;2023-05-13T01:59:43;10.60;99.90
59282;DHT22;45054;52.062;10.010;2023-05-13T02:02:08;10.60;99.90
59282;DHT22;45054;52.062;10.010;2023-05-13T02:04:34;10.50;99.90
59282;DHT22;45054;52.062;10.010;2023-05-13T02:06:59;10.50;99.90
59282;DHT22;45054;52.062;10.010;2023-05-13T02:09:25;10.60;99.90
59282;DHT22;45054;52.062;10.010;2023-05-13T02:11:50;10.60;99.90
59282;DHT22;45054;52.062;10.010;2023-05-13T02:14:17;10.60;99.90
59282;DHT22;45054;52.062;10.010;2023-05-13T02:16:42;10.70;99.90
59282;DHT22;45054;52.062;10.010;2023-05-13T02:19:08;10.60;99.90
59282;DHT22;45054;52.062;10.010;2023-05-13T02:21:33;10.60;99.90
59282;DHT22;45054;52.062;10.010;2023-05-13T02:23:59;10.50;99.90
59282;DHT22;45054;52.062;10.010;2023-05-13T02:26:24;10.50;99.90
59282;DHT22;45054;52.062;10.010;2023-05-13T02:28:49;10.50;99.90
59282;DHT22;45054;52.062;10.010;2023-05-13T02:31:16;10.40;99.90
59282;DHT22;45054;52.062;10.010;2023-05-13T02:33:42;10.40;99.90
59282;DHT22;45054;52.062;10.010;2023-05-13T02:36:07;10.30;99.90
59282;DHT22;45054;52.062;10.010;2023-05-13T02:38:33;10.20;99.90
59282;DHT22;45054;52.062;10.010;2023-05-13T02:40:58;10.20;99.90
59282;DHT22;45054;52.062;10.010;2023-05-13T02:43:26;10.20;99.90
59282;DHT22;45054;52.062;10.010;2023-05-13T02:45:51;10.20;99.90
59282;DHT22;45054;52.062;10.010;2023-05-13T02:48:18;10.20;99.90
59282;DHT22;45054;52.062;10.010;2023-05-13T02:50:44;10.20;99.90
59282;DHT22;45054;52.062;10.010;2023-05-13T02:53:09;10.20;99.90
59282;DHT22;45054;52.062;10.010;2023-05-13T02:55:35;10.30;99.90
59282;DHT22;45054;52.062;10.010;2023-05-13T02:58:00;10.20;99.90
59282;DHT22;45054;52.062;10.010;2023-05-13T03:00:25;10.10;99.90
59282;DHT22;45054;52.062;10.010;2023-05-13T03:02:51;10.10;99.90
59282;DHT22;45054;52.062;10.010;2023-05-13T03:05:18;10.20;99.90
59282;DHT22;45054;52.062;10.010;2023-05-13T03:07:43;10.10;99.90
59282;DHT22;45054;52.062;10.010;2023-05-13T03:10:08;10.10;99.90
59282;DHT22;45054;52.062;10.010;2023-05-13T03:12:34;10.10;99.90
59282;DHT22;45054;52.062;10.010;2023-05-13T03:14:59;10.00;99.90
59282;DHT22;45054;52.062;10.010;2023-05-13T03:17:25;10.10;99.90
59282;DHT22;45054;52.062;10.010;2023-05-13T03:19:50;10.10;99.90
59282;DHT22;45054;52.062;10.010;2023-05-13T03:22:17;10.10;99.90
59282;DHT22;45054;52.062;10.010;2023-05-13T03:24:42;10.10;99.90
59282;DHT22;45054;52.062;10.010;2023-05-13T03:27:08;10.00;99.90
59282;DHT22;45054;52.062;10.010;2023-05-13T03:29:33;10.00;99.90
59282;DHT22;45054;52.062;10.010;2023-05-13T03:31:59;9.90;99.90
59282;DHT22;45054;52.062;10.010;2023-05-13T03:34:24;9.90;99.90
59282;DHT22;45054;52.062;10.010;2023-05-13T03:36:50;9.90;99.90
59282;DHT22;45054;52.062;10.010;2023-05-13T03:39:16;10.00;99.90
59282;DHT22;45054;52.062;10.010;2023-05-13T03:41:42;10.00;99.90
59282;DHT22;45054;52.062;10.010;2023-05-13T03:44:07;9.90;99.90
59282;DHT22;45054;52.062;10.010;2023-05-13T03:46:33;9.90;99.90
59282;DHT22;45054;52.062;10.010;2023-05-13T03:48:58;9.80;99.90
59282;DHT22;45054;52.062;10.010;2023-05-13T03:51:24;9.80;99.90
59282;DHT22;45054;52.062;10.010;2023-05-13T03:53:49;9.80;99.90
59282;DHT22;45054;52.062;10.010;2023-05-13T03:56:16;9.90;99.90
59282;DHT22;45054;52.062;10.010;2023-05-13T03:58:41;9.90;99.90
59282;DHT22;45054;52.062;10.010;2023-05-13T04:01:07;9.90;99.90
59282;DHT22;45054;52.062;10.010;2023-05-13T04:03:32;9.90;99.90
59282;DHT22;45054;52.062;10.010;2023-05-13T04:05:58;9.80;99.90
59282;DHT22;45054;52.062;10.010;2023-05-13T04:08:23;9.80;99.90
59282;DHT22;45054;52.062;10.010;2023-05-13T04:10:48;9.90;99.90
59282;DHT22;45054;52.062;10.010;2023-05-13T04:13:15;9.90;99.90
59282;DHT22;45054;52.062;10.010;2023-05-13T04:15:41;9.90;99.90
59282;DHT22;45054;52.062;10.010;2023-05-13T04:18:06;9.90;99.90
59282;DHT22;45054;52.062;10.010;2023-05-13T04:20:32;9.90;99.90
59282;DHT22;45054;52.062;10.010;2023-05-13T04:22:57;9.90;99.90
59282;DHT22;45054;52.062;10.010;2023-05-13T04:25:22;9.90;99.90
59282;DHT22;45054;52.062;10.010;2023-05-13T04:27:48;9.90;99.90
59282;DHT22;45054;52.062;10.010;2023-05-13T04:30:15;9.90;99.90
59282;DHT22;45054;52.062;10.010;2023-05-13T04:32:40;10.00;99.90
59282;DHT22;45054;52.062;10.010;2023-05-13T04:35:06;10.10;99.90
59282;DHT22;45054;52.062;10.010;2023-05-13T04:37:32;10.10;99.90
59282;DHT22;45054;52.062;10.010;2023-05-13T04:39:57;10.20;99.90
59282;DHT22;45054;52.062;10.010;2023-05-13T04:42:22;10.20;99.90
59282;DHT22;45054;52.062;10.010;2023-05-13T04:44:48;10.10;99.90
59282;DHT22;45054;52.062;10.010;2023-05-13T04:47:15;10.20;99.90
59282;DHT22;45054;52.062;10.010;2023-05-13T04:49:40;10.20;99.90
59282;DHT22;45054;52.062;10.010;2023-05-13T04:52:06;10.30;99.90
59282;DHT22;45054;52.062;10.010;2023-05-13T04:54:31;10.40;99.90
59282;DHT22;45054;52.062;10.010;2023-05-13T04:56:56;10.40;99.90
59282;DHT22;45054;52.062;10.010;2023-05-13T04:59:22;10.40;99.90
59282;DHT22;45054;52.062;10.010;2023-05-13T05:01:47;10.50;99.90
59282;DHT22;45054;52.062;10.010;2023-05-13T05:04:14;10.60;99.90
59282;DHT22;45054;52.062;10.010;2023-05-13T05:06:39;10.70;99.90
59282;DHT22;45054;52.062;10.010;2023-05-13T05:09:05;10.80;99.90
59282;DHT22;45054;52.062;10.010;2023-05-13T05:11:30;11.00;99.90
59282;DHT22;45054;52.062;10.010;2023-05-13T05:13:56;11.20;99.90
59282;DHT22;45054;52.062;10.010;2023-05-13T05:16:21;11.40;99.90
59282;DHT22;45054;52.062;10.010;2023-05-13T05:18:47;11.50;99.90
59282;DHT22;45054;52.062;10.010;2023-05-13T05:21:13;11.60;99.90
59282;DHT22;45054;52.062;10.010;2023-05-13T05:23:39;11.70;99.90
59282;DHT22;45054;52.062;10.010;2023-05-13T05:26:04;11.70;99.90
59282;DHT22;45054;52.062;10.010;2023-05-13T05:28:30;11.70;99.90
59282;DHT22;45054;52.062;10.010;2023-05-13T05:30:55;11.70;99.90
59282;DHT22;45054;52.062;10.010;2023-05-13T05:33:21;11.70;99.90
59282;DHT22;45054;52.062;10.010;2023-05-13T05:35:46;11.70;99.90
59282;DHT22;45054;52.062;10.010;2023-05-13T05:38:13;11.80;99.90
59282;DHT22;45054;52.062;10.010;2023-05-13T05:40:39;11.80;99.90
59282;DHT22;45054;52.062;10.010;2023-05-13T05:43:05;11.80;99.90
59282;DHT22;45054;52.062;10.010;2023-05-13T05:45:30;11.70;99.90
59282;DHT22;45054;52.062;10.010;2023-05-13T05:47:56;11.80;99.90
59282;DHT22;45054;52.062;10.010;2023-05-13T05:50:21;11.80;99.90
59282;DHT22;45054;52.062;10.010;2023-05-13T05:52:47;11.90;99.90
59282;DHT22;45054;52.062;10.010;2023-05-13T05:55:13;11.90;99.90
59282;DHT22;45054;52.062;10.010;2023-05-13T05:57:39;11.90;99.90
59282;DHT22;45054;52.062;10.010;2023-05-13T06:00:05;12.00;99.90
59282;DHT22;45054;52.062;10.010;2023-05-13T06:02:30;12.10;99.90
59282;DHT22;45054;52.062;10.010;2023-05-13T06:04:56;12.10;99.90
59282;DHT22;45054;52.062;10.010;2023-05-13T06:07:21;12.10;99.90
59282;DHT22;45054;52.062;10.010;2023-05-13T06:09:47;12.10;99.90
59282;DHT22;45054;52.062;10.010;2023-05-13T06:12:13;12.20;99.90
59282;DHT22;45054;52.062;10.010;2023-05-13T06:14:39;12.20;99.90
59282;DHT22;45054;52.062;10.010;2023-05-13T06:17:04;12.20;99.90
59282;DHT22;45054;52.062;10.010;2023-05-13T06:19:30;12.30;99.90
59282;DHT22;45054;52.062;10.010;2023-05-13T06:21:55;12.30;99.90
59282;DHT22;45054;52.062;10.010;2023-05-13T06:24:21;12.30;99.90
59282;DHT22;45054;52.062;10.010;2023-05-13T06:26:46;12.30;99.90
59282;DHT22;45054;52.062;10.010;2023-05-13T06:29:13;12.30;99.90
59282;DHT22;45054;52.062;10.010;2023-05-13T06:31:39;12.30;99.90
59282;DHT22;45054;52.062;10.010;2023-05-13T06:34:04;12.40;99.90
59282;DHT22;45054;52.062;10.010;2023-05-13T06:36:29;12.50;99.90
59282;DHT22;45054;52.062;10.010;2023-05-13T06:38:55;12.60;99.90
59282;DHT22;45054;52.062;10.010;2023-05-13T06:41:20;12.70;99.90
59282;DHT22;45054;52.062;10.010;2023-05-13T06:43:46;12.90;99.90
59282;DHT22;45054;52.062;10.010;2023-05-13T06:46:13;13.00;99.90
59282;DHT22;45054;52.062;10.010;2023-05-13T06:48:38;13.00;99.90
59282;DHT22;45054;52.062;10.010;2023-05-13T06:51:03;13.10;99.90
59282;DHT22;45054;52.062;10.010;2023-05-13T06:53:29;13.10;99.90
59282;DHT22;45054;52.062;10.010;2023-05-13T06:55:54;13.20;99.90
59282;DHT22;45054;52.062;10.010;2023-05-13T06:58:20;13.20;99.90
59282;DHT22;45054;52.062;10.010;2023-05-13T07:00:45;13.20;99.90
59282;DHT22;45054;52.062;10.010;2023-05-13T07:03:12;13.30;99.90
59282;DHT22;45054;52.062;10.010;2023-05-13T07:05:38;13.30;99.90
59282;DHT22;45054;52.062;10.010;2023-05-13T07:08:03;13.40;99.90
59282;DHT22;45054;52.062;10.010;2023-05-13T07:10:29;13.50;99.90
59282;DHT22;45054;52.062;10.010;2023-05-13T07:12:54;13.60;99.90
59282;DHT22;45054;52.062;10.010;2023-05-13T07:15:20;13.70;99.90
59282;DHT22;45054;52.062;10.010;2023-05-13T07:17:45;13.80;99.90
59282;DHT22;45054;52.062;10.010;2023-05-13T07:20:12;13.90;99.90
59282;DHT22;45054;52.062;10.010;2023-05-13T07:22:38;14.00;99.90
59282;DHT22;45054;52.062;10.010;2023-05-13T07:25:03;14.20;99.90
59282;DHT22;45054;52.062;10.010;2023-05-13T07:27:29;14.20;99.90
59282;DHT22;45054;52.062;10.010;2023-05-13T07:29:54;14.30;99.90
59282;DHT22;45054;52.062;10.010;2023-05-13T07:32:20;14.30;99.90
59282;DHT22;45054;52.062;10.010;2023-05-13T07:34:45;14.30;99.90
59282;DHT22;45054;52.062;10.010;2023-05-13T07:37:12;14.30;99.90
59282;DHT22;45054;52.062;10.010;2023-05-13T07:39:37;14.20;99.90
59282;DHT22;45054;52.062;10.010;2023-05-13T07:42:03;14.20;99.90
59282;DHT22;45054;52.062;10.010;2023-05-13T07:44:28;14.30;99.90
59282;DHT22;45054;52.062;10.010;2023-05-13T07:46:54;14.40;99.90
59282;DHT22;45054;52.062;10.010;2023-05-13T07:49:19;14.40;99.90
59282;DHT22;45054;52.062;10.010;2023-05-13T07:51:45;14.50;99.90
59282;DHT22;45054;52.062;10.010;2023-05-13T07:54:12;14.70;99.90
59282;DHT22;45054;52.062;10.010;2023-05-13T07:56:37;14.80;99.90
59282;DHT22;45054;52.062;10.010;2023-05-13T07:59:02;14.90;99.90
59282;DHT22;45054;52.062;10.010;2023-05-13T08:01:28;14.90;99.90
59282;DHT22;45054;52.062;10.010;2023-05-13T08:03:53;14.90;99.90
59282;DHT22;45054;52.062;10.010;2023-05-13T08:06:19;14.90;99.90
59282;DHT22;45054;52.062;10.010;2023-05-13T08:08:44;15.00;99.90
59282;DHT22;45054;52.062;10.010;2023-05-13T08:11:11;15.00;99.90
59282;DHT22;45054;52.062;10.010;2023-05-13T08:13:36;15.00;99.90
59282;DHT22;45054;52.062;10.010;2023-05-13T08:16:02;15.00;99.90
59282;DHT22;45054;52.062;10.010;2023-05-13T08:18:27;15.20;99.90
59282;DHT22;45054;52.062;10.010;2023-05-13T08:20:53;15.30;99.90
59282;DHT22;45054;52.062;10.010;2023-05-13T08:23:18;15.40;99.90
59282;DHT22;45054;52.062;10.010;2023-05-13T08:25:44;15.50;99.90
59282;DHT22;45054;52.062;10.010;2023-05-13T08:28:10;15.60;99.90
59282;DHT22;45054;52.062;10.010;2023-05-13T08:30:36;15.70;99.90
59282;DHT22;45054;52.062;10.010;2023-05-13T08:33:01;15.80;99.90
59282;DHT22;45054;52.062;10.010;2023-05-13T08:35:27;15.80;99.90
59282;DHT22;45054;52.062;10.010;2023-05-13T08:37:52;15.90;99.90
59282;DHT22;45054;52.062;10.010;2023-05-13T08:40:18;16.00;99.90
59282;DHT22;45054;52.062;10.010;2023-05-13T08:42:44;16.10;99.90
59282;DHT22;45054;52.062;10.010;2023-05-13T08:45:12;16.30;99.90
59282;DHT22;45054;52.062;10.010;2023-05-13T08:47:43;16.30;99.90
59282;DHT22;45054;52.062;10.010;2023-05-13T08:50:12;16.40;99.90
59282;DHT22;45054;52.062;10.010;2023-05-13T08:52:38;16.40;99.90
59282;DHT22;45054;52.062;10.010;2023-05-13T08:55:04;16.40;99.90
59282;DHT22;45054;52.062;10.010;2023-05-13T08:57:30;16.60;99.90
59282;DHT22;45054;52.062;10.010;2023-05-13T08:59:55;16.70;99.90
59282;DHT22;45054;52.062;10.010;2023-05-13T09:02:22;16.80;99.90
59282;DHT22;45054;52.062;10.010;2023-05-13T09:04:48;17.00;99.90
59282;DHT22;45054;52.062;10.010;2023-05-13T09:07:15;17.00;99.90
59282;DHT22;45054;52.062;10.010;2023-05-13T09:09:40;17.00;99.90
59282;DHT22;45054;52.062;10.010;2023-05-13T09:12:06;17.00;99.90
59282;DHT22;45054;52.062;10.010;2023-05-13T09:14:32;17.10;99.90
59282;DHT22;45054;52.062;10.010;2023-05-13T09:16:57;17.20;99.90
59282;DHT22;45054;52.062;10.010;2023-05-13T09:19:24;17.40;99.90
59282;DHT22;45054;52.062;10.010;2023-05-13T09:21:49;17.50;99.90
59282;DHT22;45054;52.062;10.010;2023-05-13T09:24:16;17.60;99.90
59282;DHT22;45054;52.062;10.010;2023-05-13T09:26:42;17.60;99.90
59282;DHT22;45054;52.062;10.010;2023-05-13T09:29:17;17.80;99.90
59282;DHT22;45054;52.062;10.010;2023-05-13T09:31:43;17.80;99.90
59282;DHT22;45054;52.062;10.010;2023-05-13T09:34:08;17.80;99.90
59282;DHT22;45054;52.062;10.010;2023-05-13T09:36:35;17.90;99.90
59282;DHT22;45054;52.062;10.010;2023-05-13T09:39:01;18.00;99.90
59282;DHT22;45054;52.062;10.010;2023-05-13T09:41:26;18.00;99.90
59282;DHT22;45054;52.062;10.010;2023-05-13T09:43:52;18.20;99.90
59282;DHT22;45054;52.062;10.010;2023-05-13T09:46:17;18.30;99.90
59282;DHT22;45054;52.062;10.010;2023-05-13T09:48:44;18.30;99.90
59282;DHT22;45054;52.062;10.010;2023-05-13T09:51:09;18.40;99.90
59282;DHT22;45054;52.062;10.010;2023-05-13T09:53:36;18.40;99.90
59282;DHT22;45054;52.062;10.010;2023-05-13T09:56:02;18.40;99.90
59282;DHT22;45054;52.062;10.010;2023-05-13T09:58:27;18.50;99.90
59282;DHT22;45054;52.062;10.010;2023-05-13T10:00:53;18.60;99.90
59282;DHT22;45054;52.062;10.010;2023-05-13T10:03:19;18.70;99.90
59282;DHT22;45054;52.062;10.010;2023-05-13T10:05:44;18.70;99.90
59282;DHT22;45054;52.062;10.010;2023-05-13T10:08:11;18.60;99.90
59282;DHT22;45054;52.062;10.010;2023-05-13T10:10:38;18.70;99.90
59282;DHT22;45054;52.062;10.010;2023-05-13T10:13:04;18.80;99.90
59282;DHT22;45054;52.062;10.010;2023-05-13T10:15:30;18.90;99.90
59282;DHT22;45054;52.062;10.010;2023-05-13T10:17:56;19.10;99.90
59282;DHT22;45054;52.062;10.010;2023-05-13T10:20:21;19.10;99.90
59282;DHT22;45054;52.062;10.010;2023-05-13T10:22:47;19.10;99.90
59282;DHT22;45054;52.062;10.010;2023-05-13T10:25:13;19.00;99.90
59282;DHT22;45054;52.062;10.010;2023-05-13T10:27:40;19.00;99.90
59282;DHT22;45054;52.062;10.010;2023-05-13T10:30:06;19.10;99.90
59282;DHT22;45054;52.062;10.010;2023-05-13T10:32:32;19.10;99.90
59282;DHT22;45054;52.062;10.010;2023-05-13T10:34:59;19.00;99.90
59282;DHT22;45054;52.062;10.010;2023-05-13T10:37:47;19.10;99.90
59282;DHT22;45054;52.062;10.010;2023-05-13T10:40:21;19.10;99.90
59282;DHT22;45054;52.062;10.010;2023-05-13T10:42:51;19.50;99.90
59282;DHT22;45054;52.062;10.010;2023-05-13T10:45:18;19.60;99.90
59282;DHT22;45054;52.062;10.010;2023-05-13T10:47:44;19.60;99.90
59282;DHT22;45054;52.062;10.010;2023-05-13T10:50:21;19.80;99.90
59282;DHT22;45054;52.062;10.010;2023-05-13T10:52:47;19.90;99.90
59282;DHT22;45054;52.062;10.010;2023-05-13T10:55:16;19.90;99.90
59282;DHT22;45054;52.062;10.010;2023-05-13T10:57:44;20.00;99.90
59282;DHT22;45054;52.062;10.010;2023-05-13T11:00:30;20.10;99.90
59282;DHT22;45054;52.062;10.010;2023-05-13T11:02:56;20.10;99.90
59282;DHT22;45054;52.062;10.010;2023-05-13T11:05:21;20.30;99.90
59282;DHT22;45054;52.062;10.010;2023-05-13T11:07:53;20.20;99.90
59282;DHT22;45054;52.062;10.010;2023-05-13T11:10:23;20.20;99.90
59282;DHT22;45054;52.062;10.010;2023-05-13T11:15:43;19.90;99.90
59282;DHT22;45054;52.062;10.010;2023-05-13T11:18:08;20.00;99.90
59282;DHT22;45054;52.062;10.010;2023-05-13T11:20:35;20.00;99.90
59282;DHT22;45054;52.062;10.010;2023-05-13T11:23:01;20.20;99.90
59282;DHT22;45054;52.062;10.010;2023-05-13T11:25:26;20.20;99.90
59282;DHT22;45054;52.062;10.010;2023-05-13T11:27:52;20.10;99.90
59282;DHT22;45054;52.062;10.010;2023-05-13T11:30:20;20.20;99.90
59282;DHT22;45054;52.062;10.010;2023-05-13T11:32:54;20.30;99.90
59282;DHT22;45054;52.062;10.010;2023-05-13T11:35:21;20.40;99.90
59282;DHT22;45054;52.062;10.010;2023-05-13T11:37:46;20.50;99.90
59282;DHT22;45054;52.062;10.010;2023-05-13T11:40:18;20.50;99.90
59282;DHT22;45054;52.062;10.010;2023-05-13T11:42:45;20.40;99.90
59282;DHT22;45054;52.062;10.010;2023-05-13T11:45:10;20.30;99.90
59282;DHT22;45054;52.062;10.010;2023-05-13T11:47:36;20.30;99.90
59282;DHT22;45054;52.062;10.010;2023-05-13T11:50:15;20.30;99.90
59282;DHT22;45054;52.062;10.010;2023-05-13T11:52:41;20.40;99.90
59282;DHT22;45054;52.062;10.010;2023-05-13T11:55:06;20.50;99.90
59282;DHT22;45054;52.062;10.010;2023-05-13T11:57:32;20.60;99.90
59282;DHT22;45054;52.062;10.010;2023-05-13T11:59:58;20.80;99.90
59282;DHT22;45054;52.062;10.010;2023-05-13T12:02:24;21.00;99.90
59282;DHT22;45054;52.062;10.010;2023-05-13T12:04:50;21.00;99.90
59282;DHT22;45054;52.062;10.010;2023-05-13T12:07:19;20.90;99.90
59282;DHT22;45054;52.062;10.010;2023-05-13T12:09:44;21.00;99.90
59282;DHT22;45054;52.062;10.010;2023-05-13T12:12:10;21.00;99.90
59282;DHT22;45054;52.062;10.010;2023-05-13T12:14:35;21.10;99.90
59282;DHT22;45054;52.062;10.010;2023-05-13T12:17:01;21.10;99.90
59282;DHT22;45054;52.062;10.010;2023-05-13T12:19:26;21.30;99.90
59282;DHT22;45054;52.062;10.010;2023-05-13T12:21:52;21.50;99.90
59282;DHT22;45054;52.062;10.010;2023-05-13T12:24:19;21.40;99.90
59282;DHT22;45054;52.062;10.010;2023-05-13T12:26:45;21.50;99.90
59282;DHT22;45054;52.062;10.010;2023-05-13T12:29:10;21.60;99.90
59282;DHT22;45054;52.062;10.010;2023-05-13T12:31:35;21.80;99.90
59282;DHT22;45054;52.062;10.010;2023-05-13T12:34:01;22.00;99.90
59282;DHT22;45054;52.062;10.010;2023-05-13T12:36:27;21.90;99.90
59282;DHT22;45054;52.062;10.010;2023-05-13T12:38:53;21.70;99.90
59282;DHT22;45054;52.062;10.010;2023-05-13T12:41:20;21.20;99.90
59282;DHT22;45054;52.062;10.010;2023-05-13T12:43:46;21.10;99.90
59282;DHT22;45054;52.062;10.010;2023-05-13T12:46:11;20.70;99.90
59282;DHT22;45054;52.062;10.010;2023-05-13T12:48:37;20.90;99.90
59282;DHT22;45054;52.062;10.010;2023-05-13T12:51:02;21.30;99.90
59282;DHT22;45054;52.062;10.010;2023-05-13T12:53:28;21.60;99.90
59282;DHT22;45054;52.062;10.010;2023-05-13T12:55:53;21.80;99.90
59282;DHT22;45054;52.062;10.010;2023-05-13T12:58:20;21.70;99.90
59282;DHT22;45054;52.062;10.010;2023-05-13T13:00:45;21.60;99.90
59282;DHT22;45054;52.062;10.010;2023-05-13T13:03:11;21.70;99.90
59282;DHT22;45054;52.062;10.010;2023-05-13T13:05:36;21.80;99.90
59282;DHT22;45054;52.062;10.010;2023-05-13T13:08:02;22.00;99.90
59282;DHT22;45054;52.062;10.010;2023-05-13T13:10:27;22.30;99.90
59282;DHT22;45054;52.062;10.010;2023-05-13T13:12:52;22.50;99.90
59282;DHT22;45054;52.062;10.010;2023-05-13T13:15:19;22.50;99.90
59282;DHT22;45054;52.062;10.010;2023-05-13T13:17:45;22.60;99.90
59282;DHT22;45054;52.062;10.010;2023-05-13T13:20:10;22.60;99.90
59282;DHT22;45054;52.062;10.010;2023-05-13T13:22:36;22.70;99.90
59282;DHT22;45054;52.062;10.010;2023-05-13T13:25:02;22.70;99.90
59282;DHT22;45054;52.062;10.010;2023-05-13T13:27:27;22.60;99.90
59282;DHT22;45054;52.062;10.010;2023-05-13T13:29:53;22.40;99.90
59282;DHT22;45054;52.062;10.010;2023-05-13T13:32:19;22.00;99.90
59282;DHT22;45054;52.062;10.010;2023-05-13T13:34:45;22.00;99.90
59282;DHT22;45054;52.062;10.010;2023-05-13T13:37:10;22.00;99.90
59282;DHT22;45054;52.062;10.010;2023-05-13T13:39:36;22.10;99.90
59282;DHT22;45054;52.062;10.010;2023-05-13T13:42:01;22.30;96.50
59282;DHT22;45054;52.062;10.010;2023-05-13T13:44:27;22.60;99.90
59282;DHT22;45054;52.062;10.010;2023-05-13T13:46:52;23.00;98.90
59282;DHT22;45054;52.062;10.010;2023-05-13T13:49:19;23.40;95.90
59282;DHT22;45054;52.062;10.010;2023-05-13T13:51:44;23.50;96.20
59282;DHT22;45054;52.062;10.010;2023-05-13T13:54:10;23.40;94.90
59282;DHT22;45054;52.062;10.010;2023-05-13T13:56:36;23.60;95.60
59282;DHT22;45054;52.062;10.010;2023-05-13T13:59:01;23.70;94.90
59282;DHT22;45054;52.062;10.010;2023-05-13T14:01:27;23.60;95.90
59282;DHT22;45054;52.062;10.010;2023-05-13T14:04:08;23.70;92.70
59282;DHT22;45054;52.062;10.010;2023-05-13T14:06:34;23.60;91.50
59282;DHT22;45054;52.062;10.010;2023-05-13T14:09:00;23.30;91.30
59282;DHT22;45054;52.062;10.010;2023-05-13T14:11:25;23.30;94.00
59282;DHT22;45054;52.062;10.010;2023-05-13T14:13:51;23.60;89.50
59282;DHT22;45054;52.062;10.010;2023-05-13T14:16:16;23.80;91.00
59282;DHT22;45054;52.062;10.010;2023-05-13T14:18:42;23.90;93.00
59282;DHT22;45054;52.062;10.010;2023-05-13T14:21:07;24.00;93.30
59282;DHT22;45054;52.062;10.010;2023-05-13T14:23:34;23.70;91.10
59282;DHT22;45054;52.062;10.010;2023-05-13T14:25:59;23.90;92.90
59282;DHT22;45054;52.062;10.010;2023-05-13T14:28:25;24.10;90.60
59282;DHT22;45054;52.062;10.010;2023-05-13T14:30:50;24.00;86.90
59282;DHT22;45054;52.062;10.010;2023-05-13T14:33:16;23.90;89.80
59282;DHT22;45054;52.062;10.010;2023-05-13T14:35:41;24.10;91.50
59282;DHT22;45054;52.062;10.010;2023-05-13T14:38:06;24.50;88.30
59282;DHT22;45054;52.062;10.010;2023-05-13T14:40:33;24.50;86.20
59282;DHT22;45054;52.062;10.010;2023-05-13T14:42:59;24.50;87.60
59282;DHT22;45054;52.062;10.010;2023-05-13T14:45:24;24.80;85.20
59282;DHT22;45054;52.062;10.010;2023-05-13T14:47:50;24.40;82.80
59282;DHT22;45054;52.062;10.010;2023-05-13T14:50:15;24.30;84.40
59282;DHT22;45054;52.062;10.010;2023-05-13T14:52:40;24.20;83.50
59282;DHT22;45054;52.062;10.010;2023-05-13T14:55:06;24.30;90.00
59282;DHT22;45054;52.062;10.010;2023-05-13T14:57:33;24.20;87.20
59282;DHT22;45054;52.062;10.010;2023-05-13T14:59:58;24.20;89.60
59282;DHT22;45054;52.062;10.010;2023-05-13T15:02:24;24.20;84.70
59282;DHT22;45054;52.062;10.010;2023-05-13T15:04:49;25.50;83.60
59282;DHT22;45054;52.062;10.010;2023-05-13T15:07:15;27.20;85.90
59282;DHT22;45054;52.062;10.010;2023-05-13T15:09:40;28.60;80.20
59282;DHT22;45054;52.062;10.010;2023-05-13T15:12:06;29.90;78.10